sensor_id;sensor_type;location;lat;lon;timestamp;pressure;altitude;pressure_sealevel;temperature;humidity
55077;BME280;40971;44.702;11.030;2022-10-17T00:00:39;102466.25;;;15.45;100.00
55077;BME280;40971;44.702;11.030;2022-10-17T00:03:05;102478.72;;;15.41;100.00
55077;BME280;40971;44.702;11.030;2022-10-17T00:05:30;102481.56;;;15.37;100.00
55077;BME280;40971;44.702;11.030;2022-10-17T00:07:56;102469.25;;;15.37;100.00
55077;BME280;40971;44.702;11.030;2022-10-17T00:10:22;102462.16;;;15.39;100.00
55077;BME280;40971;44.702;11.030;2022-10-17T00:12:50;102482.78;;;15.48;100.00
55077;BME280;40971;44.702;11.030;2022-10-17T00:15:18;102434.25;;;15.16;100.00
55077;BME280;40971;44.702;11.030;2022-10-17T00:17:43;102404.44;;;14.78;100.00
55077;BME280;40971;44.702;11.030;2022-10-17T00:20:10;102495.16;;;15.27;100.00
55077;BME280;40971;44.702;11.030;2022-10-17T00:22:36;102483.34;;;15.17;100.00
55077;BME280;40971;44.702;11.030;2022-10-17T00:25:01;102500.56;;;15.24;100.00
55077;BME280;40971;44.702;11.030;2022-10-17T00:27:27;102487.81;;;15.15;100.00
55077;BME280;40971;44.702;11.030;2022-10-17T00:29:52;102494.00;;;15.14;100.00
55077;BME280;40971;44.702;11.030;2022-10-17T00:32:18;102488.00;;;15.11;100.00
55077;BME280;40971;44.702;11.030;2022-10-17T00:34:44;102468.56;;;14.94;100.00
55077;BME280;40971;44.702;11.030;2022-10-17T00:37:10;102501.22;;;15.09;100.00
55077;BME280;40971;44.702;11.030;2022-10-17T00:39:35;102489.84;;;15.09;100.00
55077;BME280;40971;44.702;11.030;2022-10-17T00:42:01;102485.28;;;14.93;100.00
55077;BME280;40971;44.702;11.030;2022-10-17T00:47:04;102500.44;;;15.07;100.00
55077;BME280;40971;44.702;11.030;2022-10-17T00:49:33;102488.56;;;14.98;100.00
55077;BME280;40971;44.702;11.030;2022-10-17T00:52:03;102453.53;;;14.78;100.00
55077;BME280;40971;44.702;11.030;2022-10-17T00:54:33;102496.22;;;14.84;100.00
55077;BME280;40971;44.702;11.030;2022-10-17T00:56:59;102498.97;;;14.81;100.00
55077;BME280;40971;44.702;11.030;2022-10-17T00:59:26;102491.34;;;14.75;100.00
55077;BME280;40971;44.702;11.030;2022-10-17T01:04:26;102492.47;;;14.49;100.00
55077;BME280;40971;44.702;11.030;2022-10-17T01:06:52;102501.56;;;14.62;100.00
55077;BME280;40971;44.702;11.030;2022-10-17T01:09:17;102486.44;;;14.67;100.00
55077;BME280;40971;44.702;11.030;2022-10-17T01:12:01;102479.13;;;14.54;100.00
55077;BME280;40971;44.702;11.030;2022-10-17T01:14:44;102490.75;;;14.48;100.00
55077;BME280;40971;44.702;11.030;2022-10-17T01:25:22;102495.16;;;14.48;100.00
55077;BME280;40971;44.702;11.030;2022-10-17T01:33:43;102469.28;;;13.95;100.00
55077;BME280;40971;44.702;11.030;2022-10-17T01:36:34;102490.53;;;13.89;100.00
55077;BME280;40971;44.702;11.030;2022-10-17T01:39:30;102504.47;;;13.91;100.00
55077;BME280;40971;44.702;11.030;2022-10-17T01:42:10;102504.50;;;13.67;100.00
55077;BME280;40971;44.702;11.030;2022-10-17T01:44:50;102439.94;;;13.40;100.00
55077;BME280;40971;44.702;11.030;2022-10-17T01:47:22;102488.16;;;13.61;100.00
55077;BME280;40971;44.702;11.030;2022-10-17T01:49:50;102424.47;;;13.09;100.00
55077;BME280;40971;44.702;11.030;2022-10-17T01:52:21;102445.34;;;13.12;100.00
55077;BME280;40971;44.702;11.030;2022-10-17T01:54:52;102483.53;;;13.44;100.00
55077;BME280;40971;44.702;11.030;2022-10-17T01:57:40;102498.66;;;13.37;100.00
55077;BME280;40971;44.702;11.030;2022-10-17T02:00:10;102432.56;;;12.79;100.00
55077;BME280;40971;44.702;11.030;2022-10-17T02:02:38;102496.38;;;13.03;100.00
55077;BME280;40971;44.702;11.030;2022-10-17T02:05:04;102440.44;;;12.79;100.00
55077;BME280;40971;44.702;11.030;2022-10-17T02:07:30;102491.34;;;12.97;100.00
55077;BME280;40971;44.702;11.030;2022-10-17T02:09:55;102472.03;;;13.00;100.00
55077;BME280;40971;44.702;11.030;2022-10-17T02:23:11;102464.88;;;12.80;100.00
55077;BME280;40971;44.702;11.030;2022-10-17T02:25:47;102479.31;;;12.67;100.00
55077;BME280;40971;44.702;11.030;2022-10-17T02:33:57;102477.78;;;12.61;100.00
55077;BME280;40971;44.702;11.030;2022-10-17T02:36:28;102465.41;;;12.64;100.00
55077;BME280;40971;44.702;11.030;2022-10-17T02:38:55;102431.13;;;12.46;100.00
55077;BME280;40971;44.702;11.030;2022-10-17T02:41:23;102476.47;;;12.73;100.00
55077;BME280;40971;44.702;11.030;2022-10-17T02:43:49;102470.31;;;12.49;100.00
55077;BME280;40971;44.702;11.030;2022-10-17T02:46:18;102475.91;;;12.64;100.00
55077;BME280;40971;44.702;11.030;2022-10-17T02:49:00;102418.28;;;12.38;100.00
55077;BME280;40971;44.702;11.030;2022-10-17T02:51:40;102480.00;;;12.72;100.00
55077;BME280;40971;44.702;11.030;2022-10-17T02:54:36;102479.56;;;12.59;100.00
55077;BME280;40971;44.702;11.030;2022-10-17T02:57:15;102485.88;;;12.53;100.00
55077;BME280;40971;44.702;11.030;2022-10-17T02:59:44;102470.50;;;12.18;100.00
55077;BME280;40971;44.702;11.030;2022-10-17T03:02:10;102481.59;;;12.24;100.00
55077;BME280;40971;44.702;11.030;2022-10-17T03:04:36;102431.66;;;12.04;100.00
55077;BME280;40971;44.702;11.030;2022-10-17T03:07:01;102480.81;;;12.22;100.00
55077;BME280;40971;44.702;11.030;2022-10-17T03:09:27;102465.69;;;12.04;100.00
55077;BME280;40971;44.702;11.030;2022-10-17T03:11:52;102430.28;;;11.64;100.00
55077;BME280;40971;44.702;11.030;2022-10-17T03:14:18;102501.13;;;11.88;100.00
55077;BME280;40971;44.702;11.030;2022-10-17T03:16:43;102501.06;;;11.89;100.00
55077;BME280;40971;44.702;11.030;2022-10-17T03:19:09;102483.53;;;11.91;100.00
55077;BME280;40971;44.702;11.030;2022-10-17T03:21:34;102497.28;;;11.99;100.00
55077;BME280;40971;44.702;11.030;2022-10-17T03:24:03;102497.47;;;11.93;100.00
55077;BME280;40971;44.702;11.030;2022-10-17T03:26:29;102498.31;;;11.94;100.00
55077;BME280;40971;44.702;11.030;2022-10-17T03:28:55;102508.69;;;11.97;100.00
55077;BME280;40971;44.702;11.030;2022-10-17T03:31:20;102519.53;;;11.85;100.00
55077;BME280;40971;44.702;11.030;2022-10-17T03:33:46;102507.84;;;11.67;100.00
55077;BME280;40971;44.702;11.030;2022-10-17T03:36:17;102523.88;;;11.86;100.00
55077;BME280;40971;44.702;11.030;2022-10-17T03:38:44;102530.66;;;11.91;100.00
55077;BME280;40971;44.702;11.030;2022-10-17T03:41:12;102531.53;;;11.92;100.00
55077;BME280;40971;44.702;11.030;2022-10-17T03:43:39;102536.66;;;11.96;100.00
55077;BME280;40971;44.702;11.030;2022-10-17T03:46:09;102514.03;;;11.94;100.00
55077;BME280;40971;44.702;11.030;2022-10-17T03:48:34;102528.38;;;12.10;100.00
55077;BME280;40971;44.702;11.030;2022-10-17T03:51:05;102529.25;;;12.09;100.00
55077;BME280;40971;44.702;11.030;2022-10-17T03:53:31;102502.22;;;11.81;100.00
55077;BME280;40971;44.702;11.030;2022-10-17T03:56:11;102491.94;;;11.73;100.00
55077;BME280;40971;44.702;11.030;2022-10-17T03:58:37;102545.25;;;12.00;100.00
55077;BME280;40971;44.702;11.030;2022-10-17T04:01:05;102539.47;;;11.89;100.00
55077;BME280;40971;44.702;11.030;2022-10-17T04:03:31;102520.34;;;11.87;100.00
55077;BME280;40971;44.702;11.030;2022-10-17T04:06:00;102539.84;;;11.77;100.00
55077;BME280;40971;44.702;11.030;2022-10-17T04:08:28;102544.25;;;11.74;100.00
55077;BME280;40971;44.702;11.030;2022-10-17T04:10:58;102556.81;;;11.63;100.00
55077;BME280;40971;44.702;11.030;2022-10-17T04:13:24;102497.38;;;11.37;100.00
55077;BME280;40971;44.702;11.030;2022-10-17T04:15:57;102559.47;;;11.91;100.00
55077;BME280;40971;44.702;11.030;2022-10-17T04:18:23;102559.16;;;12.02;100.00
55077;BME280;40971;44.702;11.030;2022-10-17T04:20:49;102555.63;;;12.03;100.00
55077;BME280;40971;44.702;11.030;2022-10-17T04:23:14;102553.78;;;11.77;100.00
55077;BME280;40971;44.702;11.030;2022-10-17T04:25:40;102538.97;;;11.47;100.00
55077;BME280;40971;44.702;11.030;2022-10-17T04:28:06;102566.53;;;11.58;100.00
55077;BME280;40971;44.702;11.030;2022-10-17T04:30:31;102562.91;;;11.64;100.00
55077;BME280;40971;44.702;11.030;2022-10-17T04:32:57;102550.56;;;11.67;100.00
55077;BME280;40971;44.702;11.030;2022-10-17T04:35:22;102545.16;;;11.73;100.00
55077;BME280;40971;44.702;11.030;2022-10-17T04:37:48;102562.72;;;11.99;100.00
55077;BME280;40971;44.702;11.030;2022-10-17T04:40:13;102525.06;;;11.74;100.00
55077;BME280;40971;44.702;11.030;2022-10-17T04:42:39;102533.91;;;11.70;100.00
55077;BME280;40971;44.702;11.030;2022-10-17T04:45:05;102594.31;;;11.95;100.00
55077;BME280;40971;44.702;11.030;2022-10-17T04:47:30;102575.22;;;11.90;100.00
55077;BME280;40971;44.702;11.030;2022-10-17T04:49:56;102563.25;;;11.83;100.00
55077;BME280;40971;44.702;11.030;2022-10-17T04:52:22;102579.13;;;11.75;100.00
55077;BME280;40971;44.702;11.030;2022-10-17T04:54:49;102550.44;;;11.72;100.00
55077;BME280;40971;44.702;11.030;2022-10-17T04:57:15;102601.81;;;12.05;100.00
55077;BME280;40971;44.702;11.030;2022-10-17T04:59:40;102596.22;;;12.18;100.00
55077;BME280;40971;44.702;11.030;2022-10-17T05:02:06;102596.75;;;12.29;100.00
55077;BME280;40971;44.702;11.030;2022-10-17T05:04:31;102603.56;;;12.34;100.00
55077;BME280;40971;44.702;11.030;2022-10-17T05:06:59;102598.94;;;12.15;100.00
55077;BME280;40971;44.702;11.030;2022-10-17T05:09:24;102600.59;;;12.17;100.00
55077;BME280;40971;44.702;11.030;2022-10-17T05:12:00;102600.59;;;12.17;100.00
55077;BME280;40971;44.702;11.030;2022-10-17T05:14:25;102597.22;;;12.14;100.00
55077;BME280;40971;44.702;11.030;2022-10-17T05:16:51;102596.13;;;12.21;100.00
55077;BME280;40971;44.702;11.030;2022-10-17T05:19:16;102615.38;;;12.48;100.00
55077;BME280;40971;44.702;11.030;2022-10-17T05:21:42;102622.38;;;12.47;100.00
55077;BME280;40971;44.702;11.030;2022-10-17T05:24:10;102603.13;;;12.48;100.00
55077;BME280;40971;44.702;11.030;2022-10-17T05:26:35;102576.66;;;12.29;100.00
55077;BME280;40971;44.702;11.030;2022-10-17T05:29:01;102598.97;;;12.41;100.00
55077;BME280;40971;44.702;11.030;2022-10-17T05:31:29;102603.97;;;12.49;100.00
55077;BME280;40971;44.702;11.030;2022-10-17T05:33:55;102616.31;;;12.72;100.00
55077;BME280;40971;44.702;11.030;2022-10-17T05:36:24;102617.28;;;12.69;100.00
55077;BME280;40971;44.702;11.030;2022-10-17T05:38:50;102621.53;;;12.73;100.00
55077;BME280;40971;44.702;11.030;2022-10-17T05:41:17;102639.25;;;12.91;100.00
55077;BME280;40971;44.702;11.030;2022-10-17T05:43:48;102636.66;;;12.91;100.00
55077;BME280;40971;44.702;11.030;2022-10-17T05:46:15;102644.47;;;12.93;100.00
55077;BME280;40971;44.702;11.030;2022-10-17T05:48:40;102642.50;;;13.00;100.00
55077;BME280;40971;44.702;11.030;2022-10-17T05:51:10;102654.38;;;13.11;100.00
55077;BME280;40971;44.702;11.030;2022-10-17T05:53:41;102648.38;;;13.06;100.00
55077;BME280;40971;44.702;11.030;2022-10-17T05:56:12;102652.66;;;13.09;100.00
55077;BME280;40971;44.702;11.030;2022-10-17T05:58:40;102659.63;;;13.10;100.00
55077;BME280;40971;44.702;11.030;2022-10-17T06:01:06;102664.00;;;13.11;100.00
55077;BME280;40971;44.702;11.030;2022-10-17T06:03:32;102668.16;;;13.18;100.00
55077;BME280;40971;44.702;11.030;2022-10-17T06:06:10;102637.09;;;13.04;100.00
55077;BME280;40971;44.702;11.030;2022-10-17T06:08:36;102672.75;;;13.36;100.00
55077;BME280;40971;44.702;11.030;2022-10-17T06:11:01;102650.66;;;13.17;100.00
55077;BME280;40971;44.702;11.030;2022-10-17T06:13:28;102680.69;;;13.35;100.00
55077;BME280;40971;44.702;11.030;2022-10-17T06:15:53;102680.75;;;13.33;100.00
55077;BME280;40971;44.702;11.030;2022-10-17T06:18:19;102662.19;;;13.13;100.00
55077;BME280;40971;44.702;11.030;2022-10-17T06:20:44;102663.88;;;13.14;100.00
55077;BME280;40971;44.702;11.030;2022-10-17T06:23:10;102683.72;;;13.22;100.00
55077;BME280;40971;44.702;11.030;2022-10-17T06:25:35;102649.13;;;13.11;100.00
55077;BME280;40971;44.702;11.030;2022-10-17T06:28:01;102653.03;;;13.24;100.00
55077;BME280;40971;44.702;11.030;2022-10-17T06:30:26;102697.50;;;13.54;100.00
55077;BME280;40971;44.702;11.030;2022-10-17T06:32:52;102703.09;;;13.70;100.00
55077;BME280;40971;44.702;11.030;2022-10-17T06:35:18;102675.22;;;13.66;100.00
55077;BME280;40971;44.702;11.030;2022-10-17T06:37:44;102688.78;;;13.78;100.00
55077;BME280;40971;44.702;11.030;2022-10-17T06:40:10;102699.97;;;13.83;100.00
55077;BME280;40971;44.702;11.030;2022-10-17T06:42:39;102712.63;;;13.97;100.00
55077;BME280;40971;44.702;11.030;2022-10-17T06:45:07;102716.78;;;14.03;100.00
55077;BME280;40971;44.702;11.030;2022-10-17T06:47:33;102714.50;;;14.17;100.00
55077;BME280;40971;44.702;11.030;2022-10-17T06:49:59;102696.44;;;14.08;100.00
55077;BME280;40971;44.702;11.030;2022-10-17T06:52:24;102662.81;;;13.94;100.00
55077;BME280;40971;44.702;11.030;2022-10-17T06:54:50;102730.19;;;14.42;100.00
55077;BME280;40971;44.702;11.030;2022-10-17T06:57:18;102731.53;;;14.54;100.00
55077;BME280;40971;44.702;11.030;2022-10-17T06:59:43;102736.53;;;14.60;100.00
55077;BME280;40971;44.702;11.030;2022-10-17T07:02:12;102719.25;;;14.54;100.00
55077;BME280;40971;44.702;11.030;2022-10-17T07:04:37;102738.09;;;14.65;100.00
55077;BME280;40971;44.702;11.030;2022-10-17T07:07:03;102689.09;;;14.39;100.00
55077;BME280;40971;44.702;11.030;2022-10-17T07:09:29;102726.78;;;14.63;100.00
55077;BME280;40971;44.702;11.030;2022-10-17T07:11:55;102732.84;;;14.65;100.00
55077;BME280;40971;44.702;11.030;2022-10-17T07:14:20;102708.00;;;14.51;100.00
55077;BME280;40971;44.702;11.030;2022-10-17T07:16:46;102741.34;;;14.72;100.00
55077;BME280;40971;44.702;11.030;2022-10-17T07:19:11;102714.78;;;14.56;100.00
55077;BME280;40971;44.702;11.030;2022-10-17T07:21:37;102695.75;;;14.50;100.00
55077;BME280;40971;44.702;11.030;2022-10-17T07:24:02;102723.09;;;14.67;100.00
55077;BME280;40971;44.702;11.030;2022-10-17T07:26:29;102715.16;;;14.69;100.00
55077;BME280;40971;44.702;11.030;2022-10-17T07:28:55;102745.13;;;14.87;100.00
55077;BME280;40971;44.702;11.030;2022-10-17T07:31:21;102743.28;;;14.89;100.00
55077;BME280;40971;44.702;11.030;2022-10-17T07:33:47;102737.63;;;14.99;100.00
55077;BME280;40971;44.702;11.030;2022-10-17T07:36:14;102708.38;;;14.85;100.00
55077;BME280;40971;44.702;11.030;2022-10-17T07:38:40;102736.50;;;15.05;100.00
55077;BME280;40971;44.702;11.030;2022-10-17T07:41:07;102744.25;;;15.08;100.00
55077;BME280;40971;44.702;11.030;2022-10-17T07:43:40;102725.69;;;15.13;100.00
55077;BME280;40971;44.702;11.030;2022-10-17T07:46:07;102655.03;;;14.82;100.00
55077;BME280;40971;44.702;11.030;2022-10-17T07:48:33;102745.13;;;15.51;100.00
55077;BME280;40971;44.702;11.030;2022-10-17T07:51:03;102732.25;;;15.65;100.00
55077;BME280;40971;44.702;11.030;2022-10-17T07:53:29;102667.56;;;15.38;100.00
55077;BME280;40971;44.702;11.030;2022-10-17T07:55:54;102728.09;;;15.80;100.00
55077;BME280;40971;44.702;11.030;2022-10-17T07:58:25;102725.63;;;15.95;100.00
55077;BME280;40971;44.702;11.030;2022-10-17T08:00:50;102665.19;;;15.72;100.00
55077;BME280;40971;44.702;11.030;2022-10-17T08:03:16;102744.63;;;16.41;100.00
55077;BME280;40971;44.702;11.030;2022-10-17T08:05:41;102751.28;;;16.69;100.00
55077;BME280;40971;44.702;11.030;2022-10-17T08:08:06;102752.22;;;16.68;100.00
55077;BME280;40971;44.702;11.030;2022-10-17T08:10:32;102687.88;;;16.51;100.00
55077;BME280;40971;44.702;11.030;2022-10-17T08:12:57;102739.50;;;17.12;100.00
55077;BME280;40971;44.702;11.030;2022-10-17T08:15:24;102749.63;;;17.21;100.00
55077;BME280;40971;44.702;11.030;2022-10-17T08:17:50;102762.97;;;17.18;100.00
55077;BME280;40971;44.702;11.030;2022-10-17T08:20:15;102738.03;;;17.41;100.00
55077;BME280;40971;44.702;11.030;2022-10-17T08:22:41;102731.59;;;17.64;100.00
55077;BME280;40971;44.702;11.030;2022-10-17T08:25:07;102749.13;;;17.99;100.00
55077;BME280;40971;44.702;11.030;2022-10-17T08:27:33;102745.59;;;18.16;100.00
55077;BME280;40971;44.702;11.030;2022-10-17T08:29:58;102691.41;;;18.08;100.00
55077;BME280;40971;44.702;11.030;2022-10-17T08:32:25;102749.13;;;18.48;100.00
55077;BME280;40971;44.702;11.030;2022-10-17T08:34:52;102732.13;;;18.37;100.00
55077;BME280;40971;44.702;11.030;2022-10-17T08:37:18;102749.56;;;18.56;100.00
55077;BME280;40971;44.702;11.030;2022-10-17T08:39:44;102737.53;;;18.51;100.00
55077;BME280;40971;44.702;11.030;2022-10-17T08:47:32;102745.19;;;18.55;100.00
55077;BME280;40971;44.702;11.030;2022-10-17T08:50:00;102731.41;;;18.66;100.00
55077;BME280;40971;44.702;11.030;2022-10-17T08:52:48;102752.50;;;18.83;100.00
55077;BME280;40971;44.702;11.030;2022-10-17T08:55:35;102747.34;;;18.80;99.27
55077;BME280;40971;44.702;11.030;2022-10-17T08:58:01;102711.50;;;18.75;99.22
55077;BME280;40971;44.702;11.030;2022-10-17T09:00:28;102746.56;;;18.94;99.37
55077;BME280;40971;44.702;11.030;2022-10-17T09:05:45;102753.66;;;18.93;98.30
55077;BME280;40971;44.702;11.030;2022-10-17T09:08:41;102751.16;;;19.06;97.90
55077;BME280;40971;44.702;11.030;2022-10-17T09:11:41;102749.66;;;19.02;100.00
55077;BME280;40971;44.702;11.030;2022-10-17T09:14:33;102754.22;;;19.14;98.67
55077;BME280;40971;44.702;11.030;2022-10-17T09:19:40;102748.47;;;19.52;95.52
55077;BME280;40971;44.702;11.030;2022-10-17T09:22:14;102752.09;;;19.51;93.00
55077;BME280;40971;44.702;11.030;2022-10-17T09:24:42;102743.53;;;19.46;92.44
55077;BME280;40971;44.702;11.030;2022-10-17T09:27:45;102743.22;;;19.36;92.13
55077;BME280;40971;44.702;11.030;2022-10-17T09:30:22;102748.44;;;19.38;92.46
55077;BME280;40971;44.702;11.030;2022-10-17T09:32:50;102736.09;;;19.52;90.48
55077;BME280;40971;44.702;11.030;2022-10-17T09:35:16;102732.41;;;19.55;90.77
55077;BME280;40971;44.702;11.030;2022-10-17T09:37:42;102721.97;;;19.52;90.06
55077;BME280;40971;44.702;11.030;2022-10-17T09:40:24;102726.94;;;19.58;90.72
55077;BME280;40971;44.702;11.030;2022-10-17T09:42:51;102736.72;;;19.72;89.87
55077;BME280;40971;44.702;11.030;2022-10-17T09:45:21;102692.72;;;19.53;88.79
55077;BME280;40971;44.702;11.030;2022-10-17T09:48:10;102739.56;;;19.83;90.42
55077;BME280;40971;44.702;11.030;2022-10-17T09:50:39;102731.13;;;19.76;90.23
55077;BME280;40971;44.702;11.030;2022-10-17T09:53:13;102736.72;;;19.86;89.73
55077;BME280;40971;44.702;11.030;2022-10-17T09:55:46;102739.66;;;20.10;90.24
55077;BME280;40971;44.702;11.030;2022-10-17T09:58:13;102732.19;;;20.17;89.48
55077;BME280;40971;44.702;11.030;2022-10-17T10:00:44;102741.16;;;20.28;88.02
55077;BME280;40971;44.702;11.030;2022-10-17T10:06:05;102728.53;;;20.32;87.66
55077;BME280;40971;44.702;11.030;2022-10-17T10:08:53;102737.28;;;20.34;86.81
55077;BME280;40971;44.702;11.030;2022-10-17T10:11:23;102687.84;;;20.19;88.00
55077;BME280;40971;44.702;11.030;2022-10-17T10:13:50;102714.25;;;20.34;87.03
55077;BME280;40971;44.702;11.030;2022-10-17T10:17:02;102736.03;;;20.54;85.08
55077;BME280;40971;44.702;11.030;2022-10-17T10:19:33;102733.44;;;20.66;84.84
55077;BME280;40971;44.702;11.030;2022-10-17T10:24:25;102718.88;;;20.86;82.97
55077;BME280;40971;44.702;11.030;2022-10-17T10:26:53;102709.31;;;20.96;82.17
55077;BME280;40971;44.702;11.030;2022-10-17T10:29:38;102718.72;;;21.02;81.21
55077;BME280;40971;44.702;11.030;2022-10-17T10:32:25;102733.81;;;21.14;80.42
55077;BME280;40971;44.702;11.030;2022-10-17T10:37:20;102678.06;;;20.87;82.29
55077;BME280;40971;44.702;11.030;2022-10-17T10:39:48;102725.72;;;21.16;80.37
55077;BME280;40971;44.702;11.030;2022-10-17T10:42:35;102724.03;;;21.15;80.04
55077;BME280;40971;44.702;11.030;2022-10-17T10:45:19;102722.69;;;21.22;80.32
55077;BME280;40971;44.702;11.030;2022-10-17T10:55:50;102720.63;;;21.90;79.92
55077;BME280;40971;44.702;11.030;2022-10-17T10:58:41;102725.19;;;22.14;78.69
55077;BME280;40971;44.702;11.030;2022-10-17T11:01:16;102715.28;;;22.16;76.69
55077;BME280;40971;44.702;11.030;2022-10-17T11:06:22;102712.72;;;22.27;76.64
55077;BME280;40971;44.702;11.030;2022-10-17T11:11:30;102718.88;;;22.64;73.84
55077;BME280;40971;44.702;11.030;2022-10-17T11:14:03;102711.03;;;22.50;75.56
55077;BME280;40971;44.702;11.030;2022-10-17T11:16:35;102705.66;;;22.63;73.92
55077;BME280;40971;44.702;11.030;2022-10-17T11:22:06;102708.88;;;22.68;72.80
55077;BME280;40971;44.702;11.030;2022-10-17T11:24:42;102699.31;;;22.76;73.12
55077;BME280;40971;44.702;11.030;2022-10-17T11:27:10;102687.25;;;22.84;73.90
55077;BME280;40971;44.702;11.030;2022-10-17T11:29:38;102692.56;;;23.07;73.43
55077;BME280;40971;44.702;11.030;2022-10-17T11:32:12;102688.72;;;23.11;72.59
55077;BME280;40971;44.702;11.030;2022-10-17T11:34:51;102697.41;;;23.02;70.16
55077;BME280;40971;44.702;11.030;2022-10-17T11:37:23;102683.50;;;23.10;71.87
55077;BME280;40971;44.702;11.030;2022-10-17T11:39:51;102697.72;;;23.33;69.43
55077;BME280;40971;44.702;11.030;2022-10-17T11:42:26;102685.25;;;23.45;68.46
55077;BME280;40971;44.702;11.030;2022-10-17T11:45:06;102692.44;;;23.55;67.41
55077;BME280;40971;44.702;11.030;2022-10-17T11:47:38;102688.41;;;23.50;68.68
55077;BME280;40971;44.702;11.030;2022-10-17T11:50:27;102675.72;;;23.53;67.38
55077;BME280;40971;44.702;11.030;2022-10-17T11:52:59;102651.56;;;23.44;65.26
55077;BME280;40971;44.702;11.030;2022-10-17T11:55:28;102658.13;;;23.51;65.62
55077;BME280;40971;44.702;11.030;2022-10-17T12:18:48;102653.72;;;24.28;61.98
55077;BME280;40971;44.702;11.030;2022-10-17T12:21:15;102641.97;;;24.63;61.43
55077;BME280;40971;44.702;11.030;2022-10-17T12:23:50;102608.41;;;24.49;61.34
55077;BME280;40971;44.702;11.030;2022-10-17T12:26:27;102637.50;;;24.84;57.70
55077;BME280;40971;44.702;11.030;2022-10-17T12:28:54;102622.44;;;24.83;56.45
55077;BME280;40971;44.702;11.030;2022-10-17T12:31:23;102645.44;;;25.06;57.77
55077;BME280;40971;44.702;11.030;2022-10-17T12:33:56;102642.56;;;25.19;54.79
55077;BME280;40971;44.702;11.030;2022-10-17T12:57:52;102650.41;;;25.93;51.83
55077;BME280;40971;44.702;11.030;2022-10-17T13:00:30;102637.91;;;26.13;51.79
55077;BME280;40971;44.702;11.030;2022-10-17T13:03:03;102637.88;;;25.93;50.89
55077;BME280;40971;44.702;11.030;2022-10-17T13:05:33;102566.31;;;25.55;53.87
55077;BME280;40971;44.702;11.030;2022-10-17T13:08:01;102571.59;;;25.76;49.76
55077;BME280;40971;44.702;11.030;2022-10-17T13:10:29;102625.41;;;25.73;52.79
55077;BME280;40971;44.702;11.030;2022-10-17T13:13:38;102559.13;;;25.56;52.09
55077;BME280;40971;44.702;11.030;2022-10-17T13:16:02;102602.50;;;25.99;50.21
55077;BME280;40971;44.702;11.030;2022-10-17T13:18:28;102637.28;;;26.40;49.68
55077;BME280;40971;44.702;11.030;2022-10-17T13:20:57;102631.00;;;26.10;50.97
55077;BME280;40971;44.702;11.030;2022-10-17T13:23:24;102635.22;;;26.13;52.69
55077;BME280;40971;44.702;11.030;2022-10-17T13:26:13;102633.09;;;26.16;52.12
55077;BME280;40971;44.702;11.030;2022-10-17T13:28:41;102623.81;;;26.30;49.80
55077;BME280;40971;44.702;11.030;2022-10-17T13:31:26;102631.69;;;26.12;49.13
55077;BME280;40971;44.702;11.030;2022-10-17T13:33:54;102618.88;;;26.06;49.04
55077;BME280;40971;44.702;11.030;2022-10-17T13:36:21;102585.16;;;25.94;48.86
55077;BME280;40971;44.702;11.030;2022-10-17T13:38:46;102611.50;;;25.58;48.30
55077;BME280;40971;44.702;11.030;2022-10-17T13:41:13;102612.50;;;25.67;49.33
55077;BME280;40971;44.702;11.030;2022-10-17T13:43:40;102617.25;;;25.84;48.85
55077;BME280;40971;44.702;11.030;2022-10-17T13:46:06;102559.13;;;25.56;50.41
55077;BME280;40971;44.702;11.030;2022-10-17T13:48:35;102578.50;;;25.78;49.51
55077;BME280;40971;44.702;11.030;2022-10-17T13:51:03;102606.41;;;25.86;47.37
55077;BME280;40971;44.702;11.030;2022-10-17T13:53:38;102534.88;;;25.07;48.21
55077;BME280;40971;44.702;11.030;2022-10-17T13:58:45;102606.22;;;25.37;48.98
55077;BME280;40971;44.702;11.030;2022-10-17T14:01:11;102613.53;;;25.14;49.08
55077;BME280;40971;44.702;11.030;2022-10-17T14:03:40;102604.28;;;25.49;49.83
55077;BME280;40971;44.702;11.030;2022-10-17T14:06:23;102588.22;;;25.39;48.61
55077;BME280;40971;44.702;11.030;2022-10-17T14:11:32;102610.72;;;25.37;49.72
55077;BME280;40971;44.702;11.030;2022-10-17T14:13:59;102574.50;;;25.33;50.35
55077;BME280;40971;44.702;11.030;2022-10-17T14:16:26;102590.16;;;25.68;49.03
55077;BME280;40971;44.702;11.030;2022-10-17T14:18:58;102542.91;;;25.17;48.51
55077;BME280;40971;44.702;11.030;2022-10-17T14:21:25;102604.84;;;25.43;51.06
55077;BME280;40971;44.702;11.030;2022-10-17T14:26:55;102605.97;;;25.50;50.58
55077;BME280;40971;44.702;11.030;2022-10-17T14:29:28;102608.00;;;25.27;49.39
55077;BME280;40971;44.702;11.030;2022-10-17T14:32:05;102559.19;;;25.04;48.54
55077;BME280;40971;44.702;11.030;2022-10-17T14:34:38;102604.41;;;25.47;49.71
55077;BME280;40971;44.702;11.030;2022-10-17T14:37:09;102603.84;;;25.44;50.08
55077;BME280;40971;44.702;11.030;2022-10-17T14:39:35;102562.59;;;24.95;51.76
55077;BME280;40971;44.702;11.030;2022-10-17T14:42:01;102613.34;;;25.27;52.10
55077;BME280;40971;44.702;11.030;2022-10-17T14:44:34;102600.94;;;25.26;52.15
55077;BME280;40971;44.702;11.030;2022-10-17T14:47:05;102596.00;;;25.22;52.27